createdAt,value
2023-03-02T00:02:02.313Z,1.71
2023-03-02T00:04:37.371Z,1.69
2023-03-02T00:07:09.746Z,1.66
2023-03-02T00:09:38.376Z,1.65
2023-03-02T00:12:07.557Z,1.65
2023-03-02T00:14:35.737Z,1.64
2023-03-02T00:17:05.177Z,1.60
2023-03-02T00:19:33.700Z,1.57
2023-03-02T00:22:02.576Z,1.55
2023-03-02T00:24:31.158Z,1.54
2023-03-02T00:26:59.900Z,1.51
2023-03-02T00:29:28.269Z,1.42
2023-03-02T00:31:56.621Z,1.30
2023-03-02T00:34:24.824Z,1.21
2023-03-02T00:36:53.064Z,1.01
2023-03-02T00:39:21.235Z,1.04
2023-03-02T00:41:49.582Z,1.00
2023-03-02T00:44:17.849Z,0.97
2023-03-02T00:46:46.211Z,0.93
2023-03-02T00:49:14.406Z,0.85
2023-03-02T00:51:42.609Z,0.86
2023-03-02T00:54:10.964Z,0.83
2023-03-02T00:56:39.242Z,0.78
2023-03-02T00:59:26.765Z,0.72
2023-03-02T01:02:24.631Z,0.69
2023-03-02T01:04:53.675Z,0.68
2023-03-02T01:07:22.413Z,0.64
2023-03-02T01:09:50.863Z,0.61
2023-03-02T01:12:19.162Z,0.61
2023-03-02T01:14:50.919Z,0.59
2023-03-02T01:17:22.221Z,0.54
2023-03-02T01:19:50.323Z,0.52
2023-03-02T01:22:19.284Z,0.51
2023-03-02T01:24:47.461Z,0.50
2023-03-02T01:27:15.781Z,0.50
2023-03-02T01:29:44.020Z,0.48
2023-03-02T01:32:12.375Z,0.47
2023-03-02T01:34:40.732Z,0.34
2023-03-02T01:37:08.882Z,0.37
2023-03-02T01:39:37.107Z,0.32
2023-03-02T01:42:05.422Z,0.25
2023-03-02T01:44:48.198Z,0.21
2023-03-02T01:47:27.052Z,0.15
2023-03-02T01:50:12.239Z,0.10
2023-03-02T01:52:40.911Z,0.08
2023-03-02T01:55:12.999Z,0.07
2023-03-02T01:57:44.967Z,0.03
2023-03-02T02:00:22.045Z,0.02
2023-03-02T02:02:51.636Z,-0.02
2023-03-02T02:05:24.362Z,-0.06
2023-03-02T02:07:52.952Z,-0.09
2023-03-02T02:10:21.294Z,-0.12
2023-03-02T02:12:49.438Z,-0.19
2023-03-02T02:15:17.676Z,-0.17
2023-03-02T02:17:46.429Z,-0.21
2023-03-02T02:20:36.176Z,-0.22
2023-03-02T02:23:10.553Z,-0.25
2023-03-02T02:25:55.434Z,-0.26
2023-03-02T02:28:35.038Z,-0.28
2023-03-02T02:31:15.396Z,-0.30
2023-03-02T02:33:49.466Z,-0.29
2023-03-02T02:36:23.568Z,-0.25
2023-03-02T02:38:56.303Z,-0.31
2023-03-02T02:41:33.837Z,-0.16
2023-03-02T02:44:02.559Z,-0.11
2023-03-02T02:46:32.921Z,-0.05
2023-03-02T02:49:03.404Z,0.02
2023-03-02T02:51:33.289Z,-0.03
2023-03-02T02:54:04.062Z,0.10
2023-03-02T02:56:39.052Z,0.14
2023-03-02T02:59:17.539Z,0.16
2023-03-02T03:01:47.861Z,0.18
2023-03-02T03:04:22.495Z,0.16
2023-03-02T03:07:01.019Z,0.18
2023-03-02T03:09:30.706Z,0.16
2023-03-02T03:12:16.138Z,0.14
2023-03-02T03:14:44.739Z,0.13
2023-03-02T03:17:13.351Z,0.10
2023-03-02T03:20:06.557Z,0.10
2023-03-02T03:22:38.986Z,0.09
2023-03-02T03:25:08.541Z,0.09
2023-03-02T03:27:36.996Z,0.06
2023-03-02T03:30:06.183Z,-0.05
2023-03-02T03:32:35.558Z,0.07
2023-03-02T03:35:08.847Z,0.06
2023-03-02T03:37:40.030Z,0.05
2023-03-02T03:40:09.938Z,0.07
2023-03-02T03:42:39.893Z,0.00
2023-03-02T03:45:11.362Z,0.11
2023-03-02T03:47:40.217Z,0.13
2023-03-02T03:50:09.886Z,0.09
2023-03-02T03:52:38.469Z,0.04
2023-03-02T03:55:12.370Z,-0.01
2023-03-02T03:57:41.391Z,-0.06
2023-03-02T04:00:15.185Z,-0.08
2023-03-02T04:02:47.292Z,-0.08
2023-03-02T04:05:15.837Z,-0.08
2023-03-02T04:07:45.111Z,-0.07
2023-03-02T04:10:13.556Z,-0.08
2023-03-02T04:12:43.390Z,-0.08
2023-03-02T04:15:15.592Z,-0.04
2023-03-02T04:17:45.253Z,-0.01
2023-03-02T04:20:16.851Z,-0.01
2023-03-02T04:22:49.569Z,0.02
2023-03-02T04:25:21.318Z,0.07
2023-03-02T04:27:52.262Z,0.10
2023-03-02T04:30:24.688Z,0.10
2023-03-02T04:32:53.635Z,0.09
2023-03-02T04:35:22.734Z,0.11
2023-03-02T04:37:51.324Z,0.14
2023-03-02T04:40:20.533Z,0.14
2023-03-02T04:42:48.670Z,0.15
2023-03-02T04:45:17.035Z,0.14
2023-03-02T04:47:46.137Z,0.14
2023-03-02T04:50:15.594Z,0.15
2023-03-02T04:52:43.815Z,0.18
2023-03-02T04:55:20.911Z,0.21
2023-03-02T04:57:49.069Z,0.21
2023-03-02T05:00:19.644Z,0.21
2023-03-02T05:02:48.332Z,0.23
2023-03-02T05:05:20.871Z,0.25
2023-03-02T05:07:49.169Z,0.27
2023-03-02T05:10:18.428Z,0.22
2023-03-02T05:13:02.554Z,0.34
2023-03-02T05:15:35.519Z,0.37
2023-03-02T05:18:05.814Z,0.38
2023-03-02T05:20:34.585Z,0.38
2023-03-02T05:23:06.426Z,0.40
2023-03-02T05:25:36.755Z,0.45
2023-03-02T05:28:05.995Z,0.48
2023-03-02T05:30:37.795Z,0.51
2023-03-02T05:33:06.160Z,0.52
2023-03-02T05:35:34.415Z,0.55
2023-03-02T05:38:02.639Z,0.57
2023-03-02T05:40:31.798Z,0.61
2023-03-02T05:43:00.062Z,0.43
2023-03-02T05:45:32.116Z,0.67
2023-03-02T05:48:00.232Z,0.65
2023-03-02T05:50:28.422Z,0.66
2023-03-02T05:52:56.621Z,0.71
2023-03-02T05:55:24.824Z,0.75
2023-03-02T05:57:53.283Z,0.78
2023-03-02T06:00:21.889Z,0.82
2023-03-02T06:02:50.073Z,0.84
2023-03-02T06:05:20.090Z,0.83
2023-03-02T06:07:48.921Z,0.79
2023-03-02T06:10:17.218Z,0.74
2023-03-02T06:12:45.409Z,0.71
2023-03-02T06:15:13.871Z,0.69
2023-03-02T06:17:42.196Z,0.68
2023-03-02T06:20:11.628Z,0.68
2023-03-02T06:22:42.171Z,0.64
2023-03-02T06:25:13.416Z,0.61
2023-03-02T06:27:42.767Z,0.58
2023-03-02T06:30:16.373Z,0.55
2023-03-02T06:32:46.770Z,0.49
2023-03-02T06:35:15.187Z,0.44
2023-03-02T06:37:44.421Z,0.42
2023-03-02T06:40:14.155Z,0.41
2023-03-02T06:42:43.026Z,0.39
2023-03-02T06:45:12.296Z,0.40
2023-03-02T06:47:40.511Z,0.40
2023-03-02T06:50:09.892Z,0.39
2023-03-02T06:52:38.224Z,0.37
2023-03-02T06:55:07.106Z,0.27
2023-03-02T06:57:36.168Z,0.41
2023-03-02T07:00:11.308Z,0.43
2023-03-02T07:02:39.838Z,0.43
2023-03-02T07:05:08.330Z,0.48
2023-03-02T07:07:36.629Z,0.55
2023-03-02T07:10:05.956Z,0.60
2023-03-02T07:12:34.662Z,0.66
2023-03-02T07:15:02.972Z,0.73
2023-03-02T07:17:31.207Z,0.84
2023-03-02T07:19:59.403Z,0.97
2023-03-02T07:22:27.497Z,1.09
2023-03-02T07:24:55.945Z,1.22
2023-03-02T07:27:24.100Z,1.29
2023-03-02T07:29:52.224Z,1.32
2023-03-02T07:32:20.657Z,1.40
2023-03-02T07:34:49.837Z,1.47
2023-03-02T07:37:18.788Z,1.40
2023-03-02T07:39:49.147Z,1.61
2023-03-02T07:42:17.922Z,1.62
2023-03-02T07:44:48.310Z,1.64
2023-03-02T07:47:16.758Z,1.68
2023-03-02T07:49:44.886Z,1.72
2023-03-02T07:52:13.180Z,1.62
2023-03-02T07:54:41.399Z,1.77
2023-03-02T07:57:09.705Z,1.87
2023-03-02T07:59:37.901Z,1.96
2023-03-02T08:02:06.147Z,1.87
2023-03-02T08:04:35.574Z,2.00
2023-03-02T08:07:03.828Z,2.10
2023-03-02T08:09:32.795Z,2.20
2023-03-02T08:12:01.009Z,2.32
2023-03-02T08:14:29.202Z,2.46
2023-03-02T08:16:57.451Z,2.63
2023-03-02T08:19:26.518Z,2.80
2023-03-02T08:21:55.315Z,2.97
2023-03-02T08:24:23.547Z,3.19
2023-03-02T08:26:52.079Z,3.43
2023-03-02T08:29:20.803Z,3.69
2023-03-02T08:31:49.163Z,3.92
2023-03-02T08:34:17.556Z,4.17
2023-03-02T08:36:45.795Z,4.39
2023-03-02T08:39:14.047Z,4.56
2023-03-02T08:41:42.229Z,4.82
2023-03-02T08:44:10.510Z,5.07
2023-03-02T08:46:38.731Z,5.26
2023-03-02T08:49:06.915Z,5.47
2023-03-02T08:51:35.396Z,5.61
2023-03-02T08:54:03.920Z,5.78
2023-03-02T08:56:35.188Z,6.00
2023-03-02T08:59:07.088Z,6.09
2023-03-02T09:01:38.025Z,6.29
2023-03-02T09:04:09.204Z,6.53
2023-03-02T09:06:40.979Z,6.73
2023-03-02T09:09:11.528Z,6.98
2023-03-02T09:11:40.091Z,7.27
2023-03-02T09:14:08.514Z,7.70
2023-03-02T09:16:37.363Z,7.78
2023-03-02T09:19:06.800Z,8.08
2023-03-02T09:21:35.734Z,8.30
2023-03-02T09:24:04.553Z,8.45
2023-03-02T09:26:32.996Z,8.71
2023-03-02T09:29:01.486Z,8.87
2023-03-02T09:31:30.539Z,9.20
2023-03-02T09:33:59.246Z,9.30
2023-03-02T09:36:28.419Z,9.66
2023-03-02T09:38:57.181Z,10.13
2023-03-02T09:41:40.142Z,10.48
2023-03-02T09:44:38.349Z,11.11
2023-03-02T09:47:48.562Z,11.77
2023-03-02T09:50:40.314Z,12.21
2023-03-02T09:53:12.231Z,12.41
2023-03-02T09:55:40.506Z,12.57
2023-03-02T09:58:20.177Z,12.76
2023-03-02T10:00:49.725Z,12.62
2023-03-02T10:03:22.201Z,12.71
2023-03-02T10:05:55.538Z,13.00
2023-03-02T10:08:26.843Z,13.47
2023-03-02T10:11:21.550Z,13.68
2023-03-02T10:13:58.944Z,13.60
2023-03-02T10:16:49.901Z,13.05
2023-03-02T10:19:43.260Z,12.86
2023-03-02T10:22:14.342Z,12.68
2023-03-02T10:25:02.708Z,12.91
2023-03-02T10:27:39.233Z,13.33
2023-03-02T10:30:31.463Z,13.85
2023-03-02T10:33:12.159Z,13.89
2023-03-02T10:35:46.703Z,13.68
2023-03-02T10:38:21.520Z,13.77
2023-03-02T10:41:00.221Z,13.42
2023-03-02T10:43:44.590Z,13.43
2023-03-02T10:46:14.321Z,13.55
2023-03-02T10:48:58.406Z,13.38
2023-03-02T10:51:32.750Z,12.91
2023-03-02T10:54:12.141Z,12.39
2023-03-02T10:56:49.946Z,12.28
2023-03-02T10:59:47.083Z,12.66
2023-03-02T11:02:24.126Z,12.73
2023-03-02T11:05:19.900Z,12.80
2023-03-02T11:08:05.849Z,12.97
2023-03-02T11:10:37.576Z,13.12
2023-03-02T11:13:18.207Z,13.51
2023-03-02T11:15:55.569Z,13.77
2023-03-02T11:18:33.148Z,13.65
2023-03-02T11:21:40.670Z,13.11
2023-03-02T11:24:32.311Z,13.04
2023-03-02T11:27:23.007Z,13.18
2023-03-02T11:30:18.879Z,13.14
2023-03-02T11:32:58.546Z,13.02
2023-03-02T11:35:33.219Z,12.82
2023-03-02T11:38:17.569Z,13.08
2023-03-02T11:40:57.243Z,13.37
2023-03-02T11:43:26.003Z,14.15
2023-03-02T11:46:00.670Z,14.18
2023-03-02T11:48:43.102Z,13.93
2023-03-02T11:51:53.305Z,13.55
2023-03-02T11:54:41.404Z,13.37
2023-03-02T11:57:33.471Z,13.79
2023-03-02T12:00:03.713Z,14.03
2023-03-02T12:02:40.614Z,14.07
2023-03-02T12:05:28.316Z,14.43
2023-03-02T12:08:00.612Z,14.84
2023-03-02T12:10:39.290Z,14.70
2023-03-02T12:13:10.329Z,14.90
2023-03-02T12:15:42.788Z,14.88
2023-03-02T12:18:27.961Z,14.13
2023-03-02T12:21:08.217Z,13.36
2023-03-02T12:23:53.364Z,13.23
2023-03-02T12:26:21.695Z,13.54
2023-03-02T12:29:05.505Z,14.23
2023-03-02T12:31:41.486Z,14.35
2023-03-02T12:34:25.272Z,13.41
2023-03-02T12:36:58.724Z,13.53
2023-03-02T12:40:02.953Z,13.55
2023-03-02T12:43:16.814Z,14.07
2023-03-02T12:46:03.479Z,14.11
2023-03-02T12:48:44.243Z,13.51
2023-03-02T12:51:22.363Z,12.80
2023-03-02T12:54:06.255Z,12.50
2023-03-02T12:56:35.748Z,12.87
2023-03-02T12:59:04.453Z,12.43
2023-03-02T13:01:33.933Z,12.19
2023-03-02T13:04:02.337Z,12.59
2023-03-02T13:06:32.745Z,13.19
2023-03-02T13:09:01.116Z,13.00
2023-03-02T13:11:37.799Z,13.24
2023-03-02T13:14:28.704Z,13.13
2023-03-02T13:17:05.197Z,13.25
2023-03-02T13:19:33.982Z,13.46
2023-03-02T13:22:02.288Z,13.68
2023-03-02T13:24:44.783Z,13.91
2023-03-02T13:27:19.072Z,14.37
2023-03-02T13:29:48.583Z,14.70
2023-03-02T13:32:25.384Z,14.63
2023-03-02T13:34:59.565Z,13.73
2023-03-02T13:37:30.383Z,13.55
2023-03-02T13:40:00.985Z,14.07
2023-03-02T13:42:36.890Z,14.99
2023-03-02T13:45:25.440Z,15.43
2023-03-02T13:47:55.536Z,14.70
2023-03-02T13:50:32.157Z,14.59
2023-03-02T13:53:05.554Z,14.68
2023-03-02T13:55:35.031Z,14.91
2023-03-02T13:58:03.259Z,14.73
2023-03-02T14:00:34.080Z,15.25
2023-03-02T14:03:02.728Z,14.84
2023-03-02T14:05:33.732Z,15.21
2023-03-02T14:08:07.811Z,16.06
2023-03-02T14:10:37.769Z,17.17
2023-03-02T14:13:10.034Z,17.70
2023-03-02T14:15:42.583Z,17.70
2023-03-02T14:18:33.023Z,18.07
2023-03-02T14:21:01.494Z,17.78
2023-03-02T14:23:29.897Z,17.18
2023-03-02T14:25:58.137Z,17.18
2023-03-02T14:28:33.013Z,17.03
2023-03-02T14:31:01.282Z,16.65
2023-03-02T14:33:29.443Z,16.41
2023-03-02T14:35:59.427Z,16.32
2023-03-02T14:38:28.320Z,16.41
2023-03-02T14:40:57.079Z,16.76
2023-03-02T14:43:25.432Z,16.52
2023-03-02T14:45:53.676Z,16.65
2023-03-02T14:48:22.045Z,16.77
2023-03-02T14:50:51.669Z,17.15
2023-03-02T14:53:29.912Z,17.72
2023-03-02T14:55:58.484Z,17.67
2023-03-02T14:58:34.643Z,17.35
2023-03-02T15:01:02.786Z,17.22
2023-03-02T15:03:31.020Z,17.35
2023-03-02T15:06:01.582Z,17.54
2023-03-02T15:08:30.542Z,17.18
2023-03-02T15:10:58.753Z,17.14
2023-03-02T15:13:26.929Z,17.38
2023-03-02T15:15:55.073Z,17.40
2023-03-02T15:18:23.427Z,16.65
2023-03-02T15:20:51.553Z,15.75
2023-03-02T15:23:19.859Z,14.65
2023-03-02T15:25:48.040Z,13.73
2023-03-02T15:28:16.149Z,12.88
2023-03-02T15:30:44.228Z,12.23
2023-03-02T15:33:12.358Z,11.81
2023-03-02T15:35:41.077Z,11.47
2023-03-02T15:38:09.647Z,11.17
2023-03-02T15:40:37.814Z,10.89
2023-03-02T15:43:06.015Z,10.57
2023-03-02T15:45:34.173Z,10.10
2023-03-02T15:48:02.411Z,9.67
2023-03-02T15:50:30.591Z,9.36
2023-03-02T15:52:58.767Z,9.06
2023-03-02T15:55:27.450Z,8.64
2023-03-02T15:57:58.195Z,8.09
2023-03-02T16:00:26.778Z,7.83
2023-03-02T16:02:54.996Z,7.55
2023-03-02T16:05:23.307Z,7.32
2023-03-02T16:07:52.035Z,7.12
2023-03-02T16:10:21.317Z,6.93
2023-03-02T16:12:49.416Z,6.75
2023-03-02T16:15:17.669Z,6.59
2023-03-02T16:17:46.063Z,6.41
2023-03-02T16:20:14.221Z,6.34
2023-03-02T16:22:42.410Z,6.22
2023-03-02T16:25:11.405Z,6.12
2023-03-02T16:27:39.840Z,6.02
2023-03-02T16:30:09.853Z,5.89
2023-03-02T16:32:38.792Z,5.76
2023-03-02T16:35:09.348Z,5.63
2023-03-02T16:37:37.729Z,5.51
2023-03-02T16:40:06.768Z,5.45
2023-03-02T16:42:35.392Z,5.37
2023-03-02T16:45:03.839Z,5.25
2023-03-02T16:47:32.260Z,5.15
2023-03-02T16:50:00.924Z,5.05
2023-03-02T16:52:29.409Z,4.93
2023-03-02T16:54:58.011Z,4.84
2023-03-02T16:57:27.405Z,4.75
2023-03-02T16:59:55.888Z,4.68
2023-03-02T17:02:24.248Z,4.60
2023-03-02T17:04:52.988Z,4.52
2023-03-02T17:07:21.845Z,4.45
2023-03-02T17:09:50.258Z,4.29
2023-03-02T17:12:18.902Z,4.29
2023-03-02T17:14:47.175Z,4.21
2023-03-02T17:17:16.030Z,4.16
2023-03-02T17:19:44.283Z,4.15
2023-03-02T17:22:13.010Z,4.11
2023-03-02T17:24:41.735Z,4.07
2023-03-02T17:27:23.842Z,4.05
2023-03-02T17:29:54.683Z,3.90
2023-03-02T17:32:23.868Z,3.96
2023-03-02T17:34:52.089Z,3.92
2023-03-02T17:37:20.486Z,3.88
2023-03-02T17:39:52.741Z,3.86
2023-03-02T17:42:21.024Z,3.84
2023-03-02T17:44:49.235Z,3.79
2023-03-02T17:47:17.480Z,3.75
2023-03-02T17:49:46.003Z,3.63
2023-03-02T17:52:15.723Z,3.72
2023-03-02T17:54:44.870Z,3.56
2023-03-02T17:57:13.867Z,3.60
2023-03-02T17:59:42.871Z,3.56
2023-03-02T18:02:11.578Z,3.50
2023-03-02T18:04:40.092Z,3.50
2023-03-02T18:07:08.616Z,3.48
2023-03-02T18:09:37.003Z,3.45
2023-03-02T18:12:05.869Z,3.27
2023-03-02T18:14:35.558Z,3.32
2023-03-02T18:17:05.084Z,3.27
2023-03-02T18:19:33.791Z,3.22
2023-03-02T18:22:02.249Z,3.17
2023-03-02T18:24:31.189Z,3.13
2023-03-02T18:26:59.700Z,3.08
2023-03-02T18:29:28.400Z,3.02
2023-03-02T18:31:56.772Z,2.96
2023-03-02T18:34:25.293Z,2.95
2023-03-02T18:36:54.442Z,2.94
2023-03-02T18:39:22.836Z,2.90
2023-03-02T18:41:51.207Z,2.76
2023-03-02T18:44:20.095Z,2.82
2023-03-02T18:46:48.502Z,2.76
2023-03-02T18:49:16.815Z,2.71
2023-03-02T18:51:45.719Z,2.68
2023-03-02T18:54:14.414Z,2.66
2023-03-02T18:56:42.935Z,2.61
2023-03-02T18:59:12.278Z,2.57
2023-03-02T19:01:40.638Z,2.53
2023-03-02T19:04:08.927Z,2.50
2023-03-02T19:06:37.478Z,2.47
2023-03-02T19:09:05.778Z,2.44
2023-03-02T19:11:34.573Z,2.41
2023-03-02T19:14:03.283Z,2.37
2023-03-02T19:16:32.051Z,2.34
2023-03-02T19:19:00.373Z,2.32
2023-03-02T19:21:28.959Z,2.30
2023-03-02T19:23:57.419Z,2.28
2023-03-02T19:26:25.916Z,2.26
2023-03-02T19:28:55.125Z,2.25
2023-03-02T19:31:24.324Z,2.23
2023-03-02T19:33:53.328Z,2.22
2023-03-02T19:36:21.839Z,2.20
2023-03-02T19:38:50.037Z,2.17
2023-03-02T19:41:20.525Z,2.15
2023-03-02T19:43:49.768Z,2.14
2023-03-02T19:46:19.688Z,2.14
2023-03-02T19:48:48.435Z,2.14
2023-03-02T19:51:16.988Z,2.14
2023-03-02T19:53:47.598Z,2.13
2023-03-02T19:56:19.631Z,2.12
2023-03-02T19:58:50.066Z,2.10
2023-03-02T20:01:25.601Z,2.07
2023-03-02T20:03:55.792Z,2.03
2023-03-02T20:06:30.190Z,2.01
2023-03-02T20:09:05.844Z,2.00
2023-03-02T20:11:34.929Z,1.98
2023-03-02T20:14:03.504Z,1.96
2023-03-02T20:16:34.731Z,1.95
2023-03-02T20:19:04.175Z,1.98
2023-03-02T20:21:34.057Z,1.97
2023-03-02T20:24:02.604Z,1.96
2023-03-02T20:26:31.969Z,1.97
2023-03-02T20:29:02.198Z,1.96
2023-03-02T20:31:33.460Z,1.94
2023-03-02T20:34:05.461Z,1.91
2023-03-02T20:36:36.276Z,1.92
2023-03-02T20:39:21.722Z,1.90
2023-03-02T20:41:50.856Z,1.85
2023-03-02T20:44:20.410Z,1.85
2023-03-02T20:46:53.876Z,1.85
2023-03-02T20:49:25.120Z,1.83
2023-03-02T20:51:55.608Z,1.76
2023-03-02T20:54:28.162Z,1.71
2023-03-02T20:56:57.265Z,1.67
2023-03-02T20:59:27.244Z,1.59
2023-03-02T21:01:56.386Z,1.55
2023-03-02T21:04:24.810Z,1.53
2023-03-02T21:06:53.096Z,1.43
2023-03-02T21:09:21.526Z,1.30
2023-03-02T21:11:49.889Z,1.18
2023-03-02T21:14:18.698Z,1.08
2023-03-02T21:16:47.004Z,1.02
2023-03-02T21:19:18.173Z,0.99
2023-03-02T21:21:47.008Z,0.94
2023-03-02T21:24:17.126Z,0.92
2023-03-02T21:26:47.149Z,0.80
2023-03-02T21:29:16.892Z,0.90
2023-03-02T21:31:46.432Z,0.88
2023-03-02T21:34:16.160Z,0.83
2023-03-02T21:36:45.473Z,0.80
2023-03-02T21:39:13.848Z,0.78
2023-03-02T21:41:42.122Z,0.78
2023-03-02T21:44:10.423Z,0.75
2023-03-02T21:46:38.869Z,0.69
2023-03-02T21:49:07.610Z,0.68
2023-03-02T21:51:36.503Z,0.67
2023-03-02T21:54:05.295Z,0.63
2023-03-02T21:56:33.792Z,0.62
2023-03-02T21:59:02.582Z,0.59
2023-03-02T22:01:32.971Z,0.58
2023-03-02T22:04:01.418Z,0.55
2023-03-02T22:06:32.153Z,0.53
2023-03-02T22:09:01.821Z,0.53
2023-03-02T22:11:37.136Z,0.54
2023-03-02T22:14:14.589Z,0.57
2023-03-02T22:16:46.508Z,0.55
2023-03-02T22:19:31.767Z,0.51
2023-03-02T22:22:03.409Z,0.47
2023-03-02T22:24:33.375Z,0.36
2023-03-02T22:27:30.068Z,0.28
2023-03-02T22:30:01.838Z,0.11
2023-03-02T22:32:37.176Z,0.17
2023-03-02T22:35:25.084Z,0.16
2023-03-02T22:38:02.385Z,0.19
2023-03-02T22:40:33.344Z,0.20
2023-03-02T22:43:30.456Z,0.20
2023-03-02T22:46:15.894Z,0.22
2023-03-02T22:48:46.524Z,0.24
2023-03-02T22:51:16.326Z,0.24
2023-03-02T22:53:56.081Z,0.20
2023-03-02T22:56:24.233Z,0.17
2023-03-02T22:58:53.684Z,0.16
2023-03-02T23:01:38.394Z,0.09
2023-03-02T23:04:09.466Z,0.04
2023-03-02T23:06:45.223Z,0.06
2023-03-02T23:09:18.302Z,0.05
2023-03-02T23:11:53.154Z,0.05
2023-03-02T23:14:39.559Z,0.01
2023-03-02T23:17:21.635Z,-0.04
2023-03-02T23:19:53.005Z,-0.04
2023-03-02T23:22:21.178Z,-0.08
2023-03-02T23:24:49.289Z,-0.09
2023-03-02T23:27:17.528Z,-0.08
2023-03-02T23:29:45.742Z,-0.06
2023-03-02T23:32:14.041Z,-0.10
2023-03-02T23:34:42.256Z,-0.16
2023-03-02T23:37:10.448Z,-0.27
2023-03-02T23:39:38.708Z,-0.17
2023-03-02T23:42:06.995Z,-0.24
2023-03-02T23:44:35.225Z,-0.30
2023-03-02T23:47:03.563Z,-0.29
2023-03-02T23:49:31.966Z,-0.28
2023-03-02T23:52:00.252Z,-0.33
2023-03-02T23:54:28.427Z,-0.33
2023-03-02T23:56:56.724Z,-0.33
2023-03-02T23:59:24.881Z,-0.32
